Time;durP1;ratioP1;P1;durP2;ratioP2;P2;SDS_P1;SDS_P2;PMS_P1;PMS_P2;Temp;Humidity;BMP_temperature;BMP_pressure;BME280_temperature;BME280_humidity;BME280_pressure;Samples;Min_cycle;Max_cycle;Signal;HPM_P1;HPM_P2
2022/12/21 00:03:19;;;;;;;23.30;14.90;;;;;;;5.05;100.00;95615.63;6088557;23;20586;-89
2022/12/21 00:05:58;;;;;;;16.27;13.10;;;;;;;5.01;100.00;95604.91;6142139;23;20197;-90
2022/12/21 00:15:17;;;;;;;12.70;10.10;;;;;;;5.13;100.00;95608.91;6146272;23;20162;-90
2022/12/21 00:21:05;;;;;;;12.47;9.80;;;;;;;5.22;100.00;95608.03;6134446;23;20175;-90
2022/12/21 00:31:01;;;;;;;9.07;7.77;;;;;;;5.27;100.00;95606.78;6099226;23;20256;-89
2022/12/21 00:50:58;;;;;;;10.17;5.93;;;;;;;5.40;99.42;95600.38;5983347;23;20193;-90
2022/12/21 01:10:21;;;;;;;4.60;4.10;;;;;;;5.59;97.29;95608.88;6110584;23;20198;-89
2022/12/21 01:13:27;;;;;;;4.63;3.87;;;;;;;5.64;97.59;95614.34;6151819;23;20189;-89
2022/12/21 01:19:16;;;;;;;;;;;;;;;;;;;;;
2022/12/21 01:25:39;;;;;;;4.83;4.20;;;;;;;5.62;97.64;95621.34;6150178;23;20261;-89
2022/12/21 01:28:44;;;;;;;4.33;3.90;;;;;;;5.60;96.46;95615.59;6030696;23;20272;-89
2022/12/21 01:37:52;;;;;;;3.60;3.30;;;;;;;5.70;96.47;95614.59;6017412;23;20181;-89
2022/12/21 01:53:24;;;;;;;3.37;2.60;;;;;;;5.89;93.71;95588.13;6054060;23;20220;-89
2022/12/21 01:56:36;;;;;;;;;;;;;;;;;;;;;
2022/12/21 01:59:37;;;;;;;4.40;3.30;;;;;;;5.98;92.69;95586.41;6150650;23;20506;-89
2022/12/21 02:09:05;;;;;;;4.90;3.60;;;;;;;6.02;92.70;95567.28;5992860;23;20209;-89
2022/12/21 02:11:52;;;;;;;5.53;3.83;;;;;;;5.99;91.91;95554.78;6148181;23;20182;-90
2022/12/21 02:14:56;;;;;;;5.67;4.00;;;;;;;5.95;91.94;95546.66;6150892;23;20177;-89
2022/12/21 02:17:59;;;;;;;6.23;4.20;;;;;;;5.86;92.47;95555.97;6090967;23;20182;-89
2022/12/21 02:25:02;;;;;;;5.27;3.93;;;;;;;5.90;91.84;95566.72;6150306;23;20731;-90
2022/12/21 02:28:36;;;;;;;5.80;3.83;;;;;;;5.89;91.83;95575.34;6003123;23;20200;-90
2022/12/21 02:35:11;;;;;;;4.40;3.70;;;;;;;5.91;91.64;95581.09;6030842;23;20180;-90
2022/12/21 02:37:57;;;;;;;4.07;3.50;;;;;;;5.91;91.45;95580.31;6029935;23;20181;-89
2022/12/21 02:47:53;;;;;;;4.60;3.77;;;;;;;5.94;90.94;95606.38;5944080;23;20692;-89
2022/12/21 02:57:17;;;;;;;3.80;3.20;;;;;;;6.02;90.83;95615.84;6120137;23;20182;-89
2022/12/21 03:00:15;;;;;;;4.40;3.60;;;;;;;6.01;91.14;95611.66;6119921;23;20195;-90
2022/12/21 03:06:32;;;;;;;4.00;3.37;;;;;;;6.02;90.65;95605.63;6094830;23;20181;-89
2022/12/21 03:09:39;;;;;;;3.77;3.17;;;;;;;6.02;91.20;95613.28;6118377;23;20351;-89
2022/12/21 03:12:35;;;;;;;4.47;3.50;;;;;;;6.01;90.78;95607.38;6120694;23;20648;-90
2022/12/21 03:22:27;;;;;;;4.40;3.53;;;;;;;6.03;91.44;95597.00;6121373;23;20203;-90
2022/12/21 03:25:09;;;;;;;4.10;3.30;;;;;;;6.02;91.42;95597.94;6073437;23;20538;-89
2022/12/21 03:31:16;;;;;;;4.30;3.23;;;;;;;5.99;92.84;95608.47;6090044;23;20183;-89
2022/12/21 03:37:33;;;;;;;4.77;3.93;;;;;;;5.98;93.32;95596.63;6121496;23;20194;-88
2022/12/21 03:40:34;;;;;;;;;;;;;;;;;;;;;
2022/12/21 03:43:35;;;;;;;4.30;3.47;;;;;;;5.92;92.92;95598.03;6112639;23;20246;-89
2022/12/21 03:46:43;;;;;;;4.23;3.40;;;;;;;5.91;93.51;95595.63;6119204;23;20179;-88
2022/12/21 03:49:35;;;;;;;4.40;3.57;;;;;;;5.92;93.49;95595.50;6120098;23;20254;-89
2022/12/21 03:53:06;;;;;;;;;;;;;;;;;;;;;
2022/12/21 04:15:23;;;;;;;5.73;4.37;;;;;;;5.92;95.05;95589.56;6001617;23;20284;-89
2022/12/21 04:39:37;;;;;;;3.50;3.20;;;;;;;5.95;94.34;95584.16;6151593;23;20198;-89
2022/12/21 04:43:04;;;;;;;3.47;3.03;;;;;;;5.99;94.19;95576.03;6151334;23;20231;-89
2022/12/21 04:49:26;;;;;;;3.73;2.80;;;;;;;6.11;93.36;95579.97;6145977;23;20197;-89
2022/12/21 04:55:05;;;;;;;2.97;2.70;;;;;;;6.16;93.29;95576.97;6144756;23;20265;-90
2022/12/21 04:57:45;;;;;;;3.17;2.87;;;;;;;6.17;93.16;95581.91;6149135;23;20238;-89
2022/12/21 05:04:10;;;;;;;;;;;;;;;;;;;;;
2022/12/21 05:06:45;;;;;;;4.37;3.33;;;;;;;6.14;94.32;95584.81;6150718;23;20253;-89
2022/12/21 05:09:22;;;;;;;3.97;3.23;;;;;;;6.14;94.35;95589.91;6150846;23;20194;-88
2022/12/21 05:11:49;;;;;;;3.63;3.20;;;;;;;6.14;94.23;95586.56;6153945;23;20230;-84
2022/12/21 05:14:15;;;;;;;4.73;3.40;;;;;;;6.15;94.05;95581.28;6154341;23;20560;-81
2022/12/21 05:16:42;;;;;;;4.30;3.50;;;;;;;6.17;94.49;95581.13;6152915;23;20552;-82
2022/12/21 05:19:09;;;;;;;3.90;3.43;;;;;;;6.20;94.28;95578.28;6154507;23;20253;-83
2022/12/21 05:21:36;;;;;;;5.70;3.70;;;;;;;6.22;94.40;95576.38;6153720;23;20179;-83
2022/12/21 05:24:02;;;;;;;5.37;3.47;;;;;;;6.22;94.97;95581.47;6154117;23;20179;-83
2022/12/21 05:26:29;;;;;;;3.83;3.43;;;;;;;6.22;94.57;95584.03;6154178;23;20179;-83
2022/12/21 05:28:55;;;;;;;4.17;3.63;;;;;;;6.21;95.38;95577.31;6152328;23;20568;-82
2022/12/21 05:31:22;;;;;;;4.93;3.60;;;;;;;6.20;95.65;95581.63;6153020;23;20186;-83
2022/12/21 05:33:48;;;;;;;6.03;3.63;;;;;;;6.19;95.99;95586.88;6150967;23;20197;-82
2022/12/21 05:36:17;;;;;;;4.07;3.60;;;;;;;6.18;96.38;95580.16;6145221;23;20163;-83
2022/12/21 05:38:44;;;;;;;4.03;3.20;;;;;;;6.17;97.22;95581.13;6153503;23;20254;-82
2022/12/21 05:41:11;;;;;;;4.63;3.30;;;;;;;6.18;97.16;95586.09;6152407;23;20182;-82
2022/12/21 05:43:38;;;;;;;4.10;3.70;;;;;;;6.18;97.26;95588.63;6153032;23;20185;-81
2022/12/21 05:46:07;;;;;;;3.80;3.50;;;;;;;6.18;97.62;95593.75;6154049;23;20199;-82
2022/12/21 05:48:34;;;;;;;4.80;3.07;;;;;;;6.19;98.06;95595.34;6152968;23;20539;-82
2022/12/21 05:51:06;;;;;;;4.30;3.47;;;;;;;6.17;98.23;95589.59;6153004;23;20179;-82
2022/12/21 05:53:34;;;;;;;4.33;3.30;;;;;;;6.16;98.13;95597.41;6149626;23;20760;-83
2022/12/21 05:56:01;;;;;;;4.50;3.40;;;;;;;6.15;98.75;95593.28;6151923;23;20501;-82
2022/12/21 05:58:27;;;;;;;5.13;3.87;;;;;;;6.16;98.13;95592.28;6153059;23;20199;-83
2022/12/21 06:00:53;;;;;;;3.80;3.40;;;;;;;6.17;98.72;95592.16;6153536;23;20179;-82
2022/12/21 06:03:21;;;;;;;4.73;3.50;;;;;;;6.20;99.09;95593.59;6153902;23;20183;-82
2022/12/21 06:05:47;;;;;;;6.73;3.53;;;;;;;6.20;99.28;95598.72;6152339;23;20195;-84
2022/12/21 06:08:14;;;;;;;6.50;4.10;;;;;;;6.18;99.56;95591.19;6153578;23;20226;-82
2022/12/21 06:10:42;;;;;;;7.03;4.03;;;;;;;6.16;100.00;95595.66;6152364;23;20179;-83
2022/12/21 06:13:08;;;;;;;6.23;3.90;;;;;;;6.18;100.00;95601.41;6151433;23;20183;-81
2022/12/21 06:15:34;;;;;;;5.57;3.87;;;;;;;6.19;100.00;95594.56;6152875;23;20202;-84
2022/12/21 06:18:04;;;;;;;4.23;3.83;;;;;;;6.19;100.00;95592.00;6152570;23;20198;-83
2022/12/21 06:20:31;;;;;;;7.00;3.87;;;;;;;6.21;100.00;95592.66;6153610;23;20177;-83
2022/12/21 06:22:57;;;;;;;5.87;4.00;;;;;;;6.20;100.00;95594.41;6152667;23;20179;-83
2022/12/21 06:25:24;;;;;;;8.70;4.37;;;;;;;6.22;100.00;95595.06;6153181;23;20237;-81
2022/12/21 06:27:51;;;;;;;6.57;4.40;;;;;;;6.24;100.00;95594.91;6152488;23;20651;-83
2022/12/21 06:30:18;;;;;;;10.00;4.70;;;;;;;6.24;100.00;95593.16;6152396;23;20175;-82
2022/12/21 06:32:44;;;;;;;6.13;3.90;;;;;;;6.24;100.00;95600.84;6152365;23;20659;-82
2022/12/21 06:35:12;;;;;;;6.53;4.37;;;;;;;6.23;100.00;95593.31;6153108;23;20640;-83
2022/12/21 06:37:39;;;;;;;5.50;3.87;;;;;;;6.23;100.00;95600.97;6152122;23;20725;-82
2022/12/21 06:40:07;;;;;;;6.83;4.30;;;;;;;6.20;100.00;95604.63;6153244;23;20178;-83
2022/12/21 06:42:33;;;;;;;7.87;3.93;;;;;;;6.18;100.00;95609.09;6152702;23;20242;-83
2022/12/21 06:45:01;;;;;;;5.87;4.20;;;;;;;6.17;100.00;95607.47;6153020;23;20202;-83
2022/12/21 06:47:28;;;;;;;5.00;3.87;;;;;;;6.18;100.00;95606.53;6152267;23;20159;-83
2022/12/21 06:49:54;;;;;;;5.27;4.00;;;;;;;6.17;100.00;95611.78;6152518;23;20836;-84
2022/12/21 06:52:20;;;;;;;5.73;4.20;;;;;;;6.16;100.00;95612.75;6153116;23;20186;-83
2022/12/21 06:54:47;;;;;;;6.20;4.50;;;;;;;6.14;100.00;95604.44;6151997;23;20525;-83
2022/12/21 06:57:13;;;;;;;5.87;4.90;;;;;;;6.14;100.00;95610.38;6148376;23;20608;-83
2022/12/21 06:59:40;;;;;;;4.93;4.40;;;;;;;6.15;100.00;95616.28;6151661;23;20195;-83
2022/12/21 07:02:09;;;;;;;6.63;4.30;;;;;;;6.16;100.00;95615.28;6152580;23;20170;-83
2022/12/21 07:04:36;;;;;;;5.20;4.37;;;;;;;6.14;100.00;95609.56;6151702;23;20179;-82
2022/12/21 07:07:02;;;;;;;5.90;4.33;;;;;;;6.09;100.00;95607.44;6152302;23;20182;-83
2022/12/21 07:09:28;;;;;;;6.27;4.53;;;;;;;6.12;100.00;95606.34;6152349;23;20198;-83
2022/12/21 07:11:55;;;;;;;6.23;4.13;;;;;;;6.08;100.00;95613.50;6152416;23;20187;-82
2022/12/21 07:14:21;;;;;;;5.83;4.07;;;;;;;6.13;100.00;95607.94;6151352;23;20175;-82
2022/12/21 07:16:47;;;;;;;6.23;4.33;;;;;;;6.16;100.00;95615.28;6152864;23;20163;-82
2022/12/21 07:19:15;;;;;;;5.67;3.83;;;;;;;6.18;100.00;95621.88;6153482;23;20250;-83
2022/12/21 07:21:41;;;;;;;4.87;3.70;;;;;;;6.19;100.00;95615.81;6154617;23;20207;-82
2022/12/21 07:24:09;;;;;;;7.90;4.17;;;;;;;6.23;100.00;95622.25;6154026;23;20254;-81
2022/12/21 07:26:35;;;;;;;5.93;3.97;;;;;;;6.25;100.00;95616.97;6152901;23;20234;-82
2022/12/21 07:29:02;;;;;;;8.80;5.10;;;;;;;6.29;100.00;95608.06;6151210;23;20669;-82
2022/12/21 07:31:28;;;;;;;8.40;4.13;;;;;;;6.32;100.00;95615.44;6152670;23;20206;-84
2022/12/21 07:33:55;;;;;;;7.67;4.70;;;;;;;6.36;100.00;95613.38;6151836;23;20235;-82
2022/12/21 07:36:22;;;;;;;7.07;4.23;;;;;;;6.33;100.00;95614.50;6153067;23;20166;-84
2022/12/21 07:38:49;;;;;;;5.97;4.17;;;;;;;6.34;100.00;95621.22;6153071;23;20199;-82
2022/12/21 07:41:17;;;;;;;7.70;4.53;;;;;;;6.36;100.00;95619.28;6152547;23;20175;-81
2022/12/21 07:43:44;;;;;;;5.57;3.80;;;;;;;6.36;100.00;95619.28;6151869;23;20186;-81
2022/12/21 07:46:11;;;;;;;8.00;4.57;;;;;;;6.37;100.00;95626.00;6152203;23;20684;-81
2022/12/21 07:48:37;;;;;;;8.63;4.70;;;;;;;6.38;100.00;95625.06;6150492;23;20569;-82
2022/12/21 07:51:04;;;;;;;4.67;4.17;;;;;;;6.39;100.00;95618.19;6152366;23;20174;-81
2022/12/21 07:53:33;;;;;;;8.13;3.83;;;;;;;6.40;100.00;95623.16;6151011;23;20560;-81
2022/12/21 07:56:00;;;;;;;6.30;3.97;;;;;;;6.41;100.00;95611.16;6150893;23;20312;-82
2022/12/21 07:58:27;;;;;;;8.97;3.90;;;;;;;6.44;100.00;95621.09;6152477;23;20237;-81
2022/12/21 08:00:53;;;;;;;5.03;3.93;;;;;;;6.46;100.00;95614.09;6151836;23;20245;-82
2022/12/21 08:03:19;;;;;;;5.43;4.03;;;;;;;6.49;100.00;95622.28;6151787;23;20212;-82
2022/12/21 08:05:46;;;;;;;4.93;3.70;;;;;;;6.52;100.00;95610.94;6151697;23;20203;-82
2022/12/21 08:08:12;;;;;;;4.90;3.90;;;;;;;6.54;100.00;95609.81;6152500;23;20202;-82
2022/12/21 08:10:40;;;;;;;5.63;4.10;;;;;;;6.58;100.00;95610.31;6151290;23;20178;-82
2022/12/21 08:13:06;;;;;;;9.70;3.90;;;;;;;6.57;100.00;95609.50;6151123;23;20187;-81
2022/12/21 08:15:33;;;;;;;7.27;3.80;;;;;;;6.61;100.00;95614.31;6152162;23;20159;-82
2022/12/21 08:17:59;;;;;;;6.90;3.80;;;;;;;6.59;100.00;95607.59;6151420;23;20198;-83
2022/12/21 08:20:25;;;;;;;6.27;3.90;;;;;;;6.64;100.00;95611.47;6152436;23;20229;-81
2022/12/21 08:22:52;;;;;;;6.20;3.80;;;;;;;6.68;100.00;95613.59;6152640;23;20186;-82
2022/12/21 08:25:18;;;;;;;7.50;4.07;;;;;;;6.71;100.00;95613.28;6151222;23;20194;-82
2022/12/21 08:27:47;;;;;;;6.17;3.90;;;;;;;6.75;100.00;95613.75;6151632;23;20178;-83
2022/12/21 08:30:15;;;;;;;6.90;4.13;;;;;;;6.76;100.00;95611.06;6150764;23;20179;-82
2022/12/21 08:32:41;;;;;;;5.50;3.87;;;;;;;6.78;100.00;95611.72;6152662;23;20291;-80
2022/12/21 08:35:08;;;;;;;7.73;3.97;;;;;;;6.81;100.00;95619.09;6152375;23;20175;-82
2022/12/21 08:37:35;;;;;;;4.87;3.60;;;;;;;6.85;100.00;95615.28;6151584;23;20585;-83
2022/12/21 08:40:01;;;;;;;5.83;3.90;;;;;;;6.89;100.00;95602.97;6151905;23;20536;-83
2022/12/21 08:42:28;;;;;;;8.10;3.90;;;;;;;6.94;100.00;95605.84;6151165;23;20178;-82
2022/12/21 08:44:55;;;;;;;6.80;3.50;;;;;;;6.98;100.00;95607.16;6151294;23;20181;-82
2022/12/21 08:47:22;;;;;;;6.83;3.90;;;;;;;7.01;100.00;95606.84;6152394;23;20186;-82
2022/12/21 08:49:48;;;;;;;5.47;3.67;;;;;;;7.05;100.00;95613.28;6150385;23;20198;-82
2022/12/21 08:52:15;;;;;;;4.73;3.83;;;;;;;7.05;100.00;95605.59;6151599;23;20182;-80
2022/12/21 08:54:41;;;;;;;7.17;3.50;;;;;;;7.10;100.00;95611.06;6151232;23;20210;-82
2022/12/21 08:57:07;;;;;;;4.33;3.37;;;;;;;7.12;100.00;95604.00;6152054;23;20194;-82
2022/12/21 08:59:34;;;;;;;7.33;4.10;;;;;;;7.14;100.00;95604.66;6152711;23;20191;-81
2022/12/21 09:02:02;;;;;;;5.23;4.40;;;;;;;7.15;100.00;95603.69;6153534;23;20183;-84
2022/12/21 09:04:28;;;;;;;6.10;3.57;;;;;;;7.19;100.00;95606.75;6153092;23;20190;-83
2022/12/21 09:06:54;;;;;;;8.30;3.90;;;;;;;7.20;100.00;95609.16;6154463;23;20194;-84
2022/12/21 09:09:21;;;;;;;6.83;3.60;;;;;;;7.21;100.00;95609.97;6154678;23;20258;-84
2022/12/21 09:11:47;;;;;;;3.50;3.20;;;;;;;7.23;100.00;95610.63;6155146;23;20186;-82
2022/12/21 09:14:14;;;;;;;7.97;3.73;;;;;;;7.23;100.00;95602.94;6155221;23;20179;-83
2022/12/21 09:16:40;;;;;;;4.07;3.50;;;;;;;7.27;100.00;95607.59;6155493;23;20183;-84
2022/12/21 09:19:09;;;;;;;6.67;3.83;;;;;;;7.28;100.00;95601.53;6154082;23;20199;-82
2022/12/21 09:21:35;;;;;;;5.23;4.03;;;;;;;7.32;100.00;95603.75;6153711;23;20171;-82
2022/12/21 09:24:01;;;;;;;4.40;3.70;;;;;;;7.33;100.00;95601.03;6154540;23;20179;-84
2022/12/21 09:26:28;;;;;;;5.47;4.10;;;;;;;7.34;100.00;95594.97;6154076;23;20206;-83
2022/12/21 09:28:54;;;;;;;8.40;4.27;;;;;;;7.39;100.00;95597.84;6152673;23;20195;-82
2022/12/21 09:31:22;;;;;;;7.07;4.40;;;;;;;7.41;100.00;95597.72;6153567;23;20186;-83
2022/12/21 09:33:50;;;;;;;5.93;4.17;;;;;;;7.44;100.00;95600.75;6153347;23;20164;-83
2022/12/21 09:36:19;;;;;;;6.30;3.70;;;;;;;7.48;100.00;95596.13;6154254;23;20175;-82
2022/12/21 09:38:45;;;;;;;9.90;3.90;;;;;;;7.48;100.00;95591.00;6154115;23;20255;-84
2022/12/21 09:41:27;;;;;;;6.33;3.47;;;;;;;7.49;100.00;95592.63;6153203;23;20163;-83
2022/12/21 09:44:09;;;;;;;7.00;3.40;;;;;;;7.47;100.00;95590.22;6154974;23;20373;-84
2022/12/21 09:46:39;;;;;;;4.87;3.80;;;;;;;7.53;100.00;95578.50;6154308;23;20182;-82
2022/12/21 09:49:12;;;;;;;5.97;3.87;;;;;;;7.54;100.00;95580.91;6154926;23;20586;-83
2022/12/21 09:51:47;;;;;;;6.93;4.10;;;;;;;7.57;100.00;95578.03;6154053;23;20674;-83
2022/12/21 09:54:19;;;;;;;8.20;4.30;;;;;;;7.57;100.00;95574.69;6154655;23;20493;-84
2022/12/21 09:56:52;;;;;;;10.00;3.97;;;;;;;7.58;100.00;95566.84;6153967;23;20159;-82
2022/12/21 09:59:21;;;;;;;6.43;3.63;;;;;;;7.63;100.00;95569.72;6153574;23;20206;-82
2022/12/21 10:01:54;;;;;;;12.43;3.70;;;;;;;7.73;100.00;95576.47;6153077;23;20249;-81
2022/12/21 10:04:31;;;;;;;5.00;3.20;;;;;;;7.74;100.00;95576.31;6153859;23;20171;-82
2022/12/21 10:07:14;;;;;;;6.03;3.17;;;;;;;7.77;100.00;95583.66;6154045;23;20206;-82
2022/12/21 10:10:00;;;;;;;8.00;3.47;;;;;;;7.78;100.00;95587.84;6153211;23;20821;-84
2022/12/21 10:12:34;;;;;;;6.73;3.83;;;;;;;7.78;100.00;95589.59;6155330;23;20193;-83
2022/12/21 10:15:19;;;;;;;5.57;3.10;;;;;;;7.78;100.00;95579.34;6153821;23;20169;-84
2022/12/21 10:18:02;;;;;;;4.50;3.30;;;;;;;7.84;100.00;95588.97;6152573;23;20159;-82
2022/12/21 10:20:44;;;;;;;6.13;3.10;;;;;;;7.87;100.00;95591.22;6153185;23;20516;-82
2022/12/21 10:23:19;;;;;;;5.50;2.90;;;;;;;7.93;100.00;95582.88;6153026;23;20208;-82
2022/12/21 10:25:47;;;;;;;5.23;2.90;;;;;;;7.95;100.00;95592.00;6152605;23;20158;-82
2022/12/21 10:28:24;;;;;;;3.93;2.50;;;;;;;8.00;100.00;95583.84;6151626;23;20203;-83
2022/12/21 10:30:56;;;;;;;4.40;2.60;;;;;;;8.02;100.00;95583.69;6153121;23;20166;-83
2022/12/21 10:33:23;;;;;;;9.03;2.73;;;;;;;8.08;100.00;95583.06;6153336;23;20191;-83
2022/12/21 10:35:52;;;;;;;5.47;2.50;;;;;;;8.13;100.00;95573.09;6153642;23;20211;-83
2022/12/21 10:38:20;;;;;;;3.17;2.60;;;;;;;8.12;100.00;95576.63;6153126;23;20242;-83
2022/12/21 10:40:50;;;;;;;4.77;3.17;;;;;;;8.16;100.00;95573.59;6153688;23;20640;-83
2022/12/21 10:43:17;;;;;;;4.40;3.00;;;;;;;8.17;100.00;95571.81;6153534;23;20163;-83
2022/12/21 10:45:44;;;;;;;5.00;2.80;;;;;;;8.18;100.00;95571.66;6153402;23;20164;-82
2022/12/21 10:48:11;;;;;;;3.47;2.70;;;;;;;8.19;100.00;95567.34;6152931;23;20206;-83
2022/12/21 10:50:41;;;;;;;4.37;2.50;;;;;;;8.22;100.00;95562.69;6153745;23;20181;-83
2022/12/21 10:53:19;;;;;;;5.07;2.70;;;;;;;8.23;100.00;95561.72;6153600;23;20229;-83
2022/12/21 10:55:47;;;;;;;4.93;2.73;;;;;;;8.24;100.00;95562.53;6153648;23;20166;-82
2022/12/21 10:58:19;;;;;;;4.93;3.50;;;;;;;8.25;100.00;95556.44;6153062;23;20677;-82
2022/12/21 11:00:53;;;;;;;6.23;2.93;;;;;;;8.28;100.00;95551.75;6153136;23;20529;-83
2022/12/21 11:03:24;;;;;;;4.63;2.83;;;;;;;8.29;100.00;95547.44;6153019;23;20171;-82
2022/12/21 11:05:50;;;;;;;3.17;2.50;;;;;;;8.32;100.00;95547.13;6152622;23;20606;-83
2022/12/21 11:08:22;;;;;;;3.37;2.77;;;;;;;8.31;100.00;95540.38;6153078;23;20565;-82
2022/12/21 11:10:51;;;;;;;3.97;2.27;;;;;;;8.33;100.00;95541.03;6153998;23;20219;-84
2022/12/21 11:13:19;;;;;;;4.70;2.73;;;;;;;8.30;100.00;95552.41;6153255;23;20163;-82
2022/12/21 11:16:04;;;;;;;2.83;2.60;;;;;;;8.31;100.00;95545.50;6153019;23;20636;-81
2022/12/21 11:18:44;;;;;;;8.90;2.97;;;;;;;8.34;100.00;95540.09;6152891;23;20210;-83
2022/12/21 11:21:23;;;;;;;3.10;2.70;;;;;;;8.35;100.00;95534.00;6153197;23;20158;-82
2022/12/21 11:23:58;;;;;;;4.80;2.57;;;;;;;8.40;100.00;95533.50;6152678;23;20167;-83
2022/12/21 11:26:30;;;;;;;4.97;2.60;;;;;;;8.38;100.00;95531.09;6151815;23;20195;-83
2022/12/21 11:29:06;;;;;;;3.40;2.50;;;;;;;8.39;100.00;95529.34;6151796;23;20601;-83
2022/12/21 11:31:33;;;;;;;4.47;2.67;;;;;;;8.41;100.00;95520.50;6153692;23;20218;-84
2022/12/21 11:34:00;;;;;;;4.03;2.57;;;;;;;8.42;100.00;95513.63;6153025;23;20189;-83
2022/12/21 11:36:26;;;;;;;3.47;2.67;;;;;;;8.44;100.00;95515.06;6153169;23;20186;-82
2022/12/21 11:38:53;;;;;;;6.57;2.80;;;;;;;8.43;100.00;95510.09;6152314;23;20199;-83
2022/12/21 11:41:25;;;;;;;3.10;2.80;;;;;;;8.44;100.00;95509.13;6152995;23;20178;-83
2022/12/21 11:43:53;;;;;;;3.67;2.80;;;;;;;8.45;100.00;95510.72;6152258;23;20233;-83
2022/12/21 11:46:33;;;;;;;5.10;2.77;;;;;;;8.42;100.00;95511.06;6150155;23;20815;-83
2022/12/21 11:49:13;;;;;;;4.03;2.70;;;;;;;8.40;100.00;95500.97;6152452;23;20199;-84
2022/12/21 11:51:46;;;;;;;3.93;2.80;;;;;;;8.38;100.00;95502.88;6152072;23;20194;-83
2022/12/21 11:54:27;;;;;;;3.80;2.47;;;;;;;8.41;100.00;95494.84;6150753;23;20167;-83
2022/12/21 11:57:05;;;;;;;3.00;2.50;;;;;;;8.44;100.00;95494.53;6151151;23;20605;-82
2022/12/21 11:59:47;;;;;;;6.20;2.37;;;;;;;8.45;100.00;95490.19;6151799;23;20203;-82
2022/12/21 12:02:34;;;;;;;3.73;2.53;;;;;;;8.43;100.00;95482.66;6151737;23;20774;-82
2022/12/21 12:05:14;;;;;;;2.60;2.40;;;;;;;8.49;100.00;95488.88;6152284;23;20532;-83
2022/12/21 12:07:54;;;;;;;4.37;2.73;;;;;;;8.49;100.00;95487.13;6152072;23;20183;-82
2022/12/21 12:10:40;;;;;;;5.90;2.73;;;;;;;8.53;100.00;95485.03;6151586;23;20166;-81
2022/12/21 12:13:17;;;;;;;2.97;2.10;;;;;;;8.55;100.00;95478.78;6151780;23;20715;-83
2022/12/21 12:15:59;;;;;;;3.10;2.63;;;;;;;8.56;100.00;95477.81;6153438;23;20214;-84
2022/12/21 12:18:41;;;;;;;2.97;2.30;;;;;;;8.59;100.00;95480.03;6155090;23;20225;-83
2022/12/21 12:21:25;;;;;;;3.70;2.20;;;;;;;8.58;100.00;95480.22;6152593;23;20163;-82
2022/12/21 12:24:05;;;;;;;2.87;2.20;;;;;;;8.62;100.00;95476.34;6152322;23;20221;-82
2022/12/21 12:26:40;;;;;;;4.57;2.33;;;;;;;8.65;100.00;95474.25;6151321;23;20644;-82
2022/12/21 12:29:25;;;;;;;5.07;2.37;;;;;;;8.68;100.00;95477.44;6150091;23;20198;-82
2022/12/21 12:32:11;;;;;;;5.50;2.40;;;;;;;8.68;100.00;95483.34;6151779;23;20162;-83
2022/12/21 12:34:56;;;;;;;5.27;2.40;;;;;;;8.66;100.00;95486.09;6150404;23;20198;-82
2022/12/21 12:37:36;;;;;;;3.60;2.07;;;;;;;8.69;100.00;95484.16;6151238;23;20159;-81
2022/12/21 12:40:13;;;;;;;4.87;2.23;;;;;;;8.69;100.00;95479.03;6152019;23;20229;-83
2022/12/21 12:42:42;;;;;;;4.93;2.40;;;;;;;8.72;100.00;95483.84;6154767;23;20163;-82
2022/12/21 12:45:19;;;;;;;3.63;2.30;;;;;;;8.74;100.00;95489.59;6150858;23;20640;-83
2022/12/21 12:47:57;;;;;;;5.27;2.30;;;;;;;8.76;100.00;95485.91;6146867;23;20178;-83
2022/12/21 12:50:33;;;;;;;4.73;2.50;;;;;;;8.80;100.00;95484.59;6154210;23;20166;-83
2022/12/21 12:53:25;;;;;;;3.37;2.53;;;;;;;8.81;100.00;95473.38;6154494;23;20169;-83
2022/12/21 12:56:02;;;;;;;3.30;2.53;;;;;;;8.82;100.00;95479.31;6154421;23;20186;-84
2022/12/21 12:58:41;;;;;;;3.23;2.60;;;;;;;8.80;100.00;95482.03;6153413;23;20226;-84
2022/12/21 13:01:14;;;;;;;4.10;2.40;;;;;;;8.82;100.00;95471.59;6153785;23;20159;-83
2022/12/21 13:03:58;;;;;;;5.87;3.00;;;;;;;8.86;100.00;95470.28;6153745;23;20159;-84
2022/12/21 13:06:35;;;;;;;4.30;2.93;;;;;;;8.86;100.00;95473.66;6153889;23;20245;-83
2022/12/21 13:09:12;;;;;;;2.63;2.33;;;;;;;8.88;99.83;95473.47;6153059;23;20210;-82
2022/12/21 13:11:45;;;;;;;5.23;2.43;;;;;;;8.91;99.78;95473.94;6153032;23;20190;-82
2022/12/21 13:14:18;;;;;;;3.13;2.40;;;;;;;8.92;99.06;95480.69;6153619;23;20218;-83
2022/12/21 13:16:52;;;;;;;2.97;2.40;;;;;;;8.95;99.49;95477.78;6153680;23;20159;-83
2022/12/21 13:19:21;;;;;;;3.50;2.50;;;;;;;8.98;99.24;95484.34;6154687;23;20205;-83
2022/12/21 13:21:52;;;;;;;3.10;2.17;;;;;;;8.93;99.03;95479.72;6153770;23;20178;-83
2022/12/21 13:24:22;;;;;;;3.50;2.20;;;;;;;8.93;99.75;95484.84;6153885;23;20164;-83
2022/12/21 13:26:51;;;;;;;3.83;2.37;;;;;;;8.96;99.50;95491.41;6154779;23;20230;-83
2022/12/21 13:29:23;;;;;;;3.60;2.30;;;;;;;8.94;99.96;95494.16;6153508;23;20204;-83
2022/12/21 13:31:54;;;;;;;3.97;2.70;;;;;;;8.99;99.75;95489.31;6149057;23;20155;-82
2022/12/21 13:34:26;;;;;;;3.57;2.60;;;;;;;9.02;99.01;95498.47;6143183;23;20162;-81
2022/12/21 13:36:53;;;;;;;3.70;2.60;;;;;;;9.06;100.00;95493.75;6142556;23;20168;-81
2022/12/21 13:39:26;;;;;;;3.63;2.97;;;;;;;9.08;99.64;95496.97;6143378;23;20199;-83
2022/12/21 13:41:57;;;;;;;3.60;2.43;;;;;;;9.07;99.56;95495.38;6142403;23;20175;-82
2022/12/21 13:44:31;;;;;;;4.60;2.80;;;;;;;9.05;100.00;95494.72;6144126;23;20172;-82
2022/12/21 13:46:59;;;;;;;3.30;2.90;;;;;;;9.05;100.00;95498.09;6144446;23;20179;-84
2022/12/21 13:49:46;;;;;;;3.07;2.73;;;;;;;9.04;99.77;95495.72;6142323;23;20199;-83
2022/12/21 13:52:18;;;;;;;5.10;2.60;;;;;;;9.04;99.65;95496.53;6143813;23;20183;-82
2022/12/21 13:54:52;;;;;;;4.30;2.93;;;;;;;9.01;100.00;95499.44;6142511;23;20166;-83
2022/12/21 13:57:27;;;;;;;3.73;2.50;;;;;;;8.98;100.00;95503.13;6144933;23;20169;-81
2022/12/21 14:00:02;;;;;;;4.80;2.70;;;;;;;9.02;100.00;95506.16;6142594;23;20195;-84
2022/12/21 14:02:43;;;;;;;3.90;2.60;;;;;;;9.04;100.00;95503.44;6144594;23;20215;-82
2022/12/21 14:05:16;;;;;;;5.83;2.90;;;;;;;9.06;100.00;95499.69;6143559;23;20222;-84
2022/12/21 14:08:11;;;;;;;3.80;2.73;;;;;;;9.06;100.00;95493.75;6143044;23;20206;-83
2022/12/21 14:10:45;;;;;;;3.20;2.63;;;;;;;9.09;100.00;95496.78;6142687;23;20163;-83
2022/12/21 14:13:50;;;;;;;4.17;2.80;;;;;;;9.08;100.00;95490.06;6143425;23;20190;-83
2022/12/21 14:16:20;;;;;;;3.30;2.40;;;;;;;9.08;100.00;95487.50;6153345;23;20163;-83
2022/12/21 14:18:53;;;;;;;5.13;2.33;;;;;;;9.06;100.00;95486.84;6153191;23;20203;-84
2022/12/21 14:21:25;;;;;;;4.50;2.50;;;;;;;9.07;100.00;95492.78;6153957;23;20295;-83
2022/12/21 14:23:54;;;;;;;2.77;2.37;;;;;;;9.08;99.88;95489.25;6153571;23;20478;-82
2022/12/21 14:26:33;;;;;;;4.13;2.70;;;;;;;9.08;100.00;95500.34;6153288;23;20185;-83
2022/12/21 14:29:04;;;;;;;2.90;2.50;;;;;;;9.07;99.80;95491.03;6152585;23;20215;-82
2022/12/21 14:31:31;;;;;;;2.93;2.50;;;;;;;9.08;99.24;95484.13;6154060;23;20160;-82
2022/12/21 14:33:59;;;;;;;2.83;2.47;;;;;;;9.07;99.10;95488.47;6154848;23;20498;-84
2022/12/21 14:36:31;;;;;;;4.20;2.50;;;;;;;9.09;99.19;95483.16;6155096;23;20182;-83
2022/12/21 14:39:33;;;;;;;4.33;2.77;;;;;;;9.17;100.00;95470.28;6153252;23;20202;-82
2022/12/21 14:42:31;;;;;;;3.00;2.30;;;;;;;9.31;100.00;95479.81;6153339;23;20183;-83
2022/12/21 14:45:18;;;;;;;3.13;2.27;;;;;;;9.29;97.86;95485.13;6154773;23;20166;-83
2022/12/21 14:48:00;;;;;;;3.80;2.20;;;;;;;9.26;97.38;95482.88;6155567;23;20183;-83
2022/12/21 14:50:50;;;;;;;2.90;2.10;;;;;;;9.22;97.52;95484.22;6153729;23;20191;-84
2022/12/21 14:53:34;;;;;;;4.07;2.07;;;;;;;9.19;97.55;95474.28;6155015;23;20497;-84
2022/12/21 14:56:06;;;;;;;2.87;2.20;;;;;;;9.17;98.14;95485.69;6153768;23;20163;-83
2022/12/21 14:58:34;;;;;;;2.47;1.90;;;;;;;9.15;98.34;95479.91;6154290;23;20685;-84
2022/12/21 15:01:10;;;;;;;4.33;2.27;;;;;;;9.13;98.32;95481.84;6154158;23;20187;-84
2022/12/21 15:03:40;;;;;;;3.77;2.00;;;;;;;9.10;98.76;95492.47;6153745;23;20170;-84
2022/12/21 15:06:09;;;;;;;3.03;2.40;;;;;;;9.08;99.56;95489.25;6154425;23;20206;-83
2022/12/21 15:08:43;;;;;;;2.00;1.90;;;;;;;9.05;99.15;95487.81;6153783;23;20199;-84
2022/12/21 15:11:16;;;;;;;2.23;2.00;;;;;;;9.04;99.32;95493.16;6153798;23;20632;-83
2022/12/21 15:13:48;;;;;;;4.37;2.17;;;;;;;9.04;99.52;95490.59;6154020;23;20181;-84